Time;durP1;ratioP1;P1;durP2;ratioP2;P2;SDS_P1;SDS_P2;PMS_P1;PMS_P2;Temp;Humidity;BMP_temperature;BMP_pressure;BME280_temperature;BME280_humidity;BME280_pressure;Samples;Min_cycle;Max_cycle;Signal;HPM_P1;HPM_P2
2022/04/27 00:01:14;;;;;;;16.45;11.77;;;;;;;9.92;70.95;101047.75;4209816;28;20441;-62
2022/04/27 00:03:18;;;;;;;14.40;12.15;;;;;;;9.98;70.95;101037.53;4200986;28;20040;-62
2022/04/27 00:05:21;;;;;;;12.20;10.32;;;;;;;10.00;70.69;101038.44;4206586;28;20135;-62
2022/04/27 00:07:26;;;;;;;15.73;11.52;;;;;;;10.06;70.38;101036.03;4211894;28;20507;-62
2022/04/27 00:09:29;;;;;;;12.55;10.23;;;;;;;9.98;70.64;101032.34;4211656;28;20036;-62
2022/04/27 00:11:32;;;;;;;13.13;11.48;;;;;;;10.02;70.81;101035.91;4206802;28;20038;-62
2022/04/27 00:13:35;;;;;;;13.32;11.65;;;;;;;10.02;70.12;101034.19;4228670;28;20127;-62
2022/04/27 00:15:37;;;;;;;15.18;11.80;;;;;;;10.09;70.40;101030.91;4239516;27;20103;-62
2022/04/27 00:17:40;;;;;;;12.05;9.73;;;;;;;10.06;70.14;101030.81;4208984;28;20040;-62
2022/04/27 00:19:43;;;;;;;14.25;11.10;;;;;;;10.07;69.19;101026.50;4228085;28;20126;-62
2022/04/27 00:21:46;;;;;;;11.57;9.95;;;;;;;10.08;69.01;101029.13;4209599;28;20028;-62
2022/04/27 00:23:50;;;;;;;12.35;10.82;;;;;;;10.07;69.37;101026.50;4208260;28;20030;-62
2022/04/27 00:25:53;;;;;;;13.07;10.98;;;;;;;10.10;68.97;101036.97;4213195;28;20114;-62
2022/04/27 00:27:56;;;;;;;13.10;10.85;;;;;;;10.09;68.75;101036.09;4208370;28;20042;-61
2022/04/27 00:30:00;;;;;;;14.20;10.65;;;;;;;10.04;69.24;101035.09;4194659;28;20049;-62
2022/04/27 00:32:03;;;;;;;12.15;10.35;;;;;;;10.03;69.42;101041.13;4211708;28;20036;-61
2022/04/27 00:34:06;;;;;;;13.00;10.80;;;;;;;10.05;69.33;101036.84;4209914;28;20024;-62
2022/04/27 00:36:09;;;;;;;12.85;11.10;;;;;;;10.07;69.18;101034.28;4212696;28;20044;-62
2022/04/27 00:38:12;;;;;;;13.15;10.00;;;;;;;10.17;68.50;101035.41;4211201;28;20138;-62
2022/04/27 00:40:17;;;;;;;11.63;10.30;;;;;;;10.11;69.00;101039.59;4234474;28;20490;-62
2022/04/27 00:42:22;;;;;;;11.70;9.95;;;;;;;10.09;68.88;101038.69;4209097;28;20109;-62
2022/04/27 00:44:25;;;;;;;13.45;11.43;;;;;;;10.05;68.89;101049.84;4212972;28;20061;-62
2022/04/27 00:46:27;;;;;;;15.45;10.80;;;;;;;10.12;68.46;101048.28;4211175;28;20040;-62
2022/04/27 00:48:30;;;;;;;12.85;11.25;;;;;;;10.10;69.04;101045.66;4210869;28;20064;-62
2022/04/27 00:50:34;;;;;;;13.85;11.15;;;;;;;10.12;68.87;101049.16;4211710;28;20081;-62
2022/04/27 00:52:38;;;;;;;11.48;9.98;;;;;;;10.09;69.18;101051.69;4211416;28;20101;-62
2022/04/27 00:54:43;;;;;;;14.43;11.02;;;;;;;10.13;69.01;101050.94;4212283;28;20039;-62
2022/04/27 00:56:47;;;;;;;11.35;10.02;;;;;;;10.13;68.77;101052.63;4211393;28;20036;-62
2022/04/27 00:58:50;;;;;;;11.90;10.07;;;;;;;10.14;69.15;101055.25;4210196;28;20552;-62
2022/04/27 01:00:55;;;;;;;10.88;9.20;;;;;;;10.17;69.33;101051.88;4208774;28;20044;-62
2022/04/27 01:02:58;;;;;;;12.73;10.05;;;;;;;10.17;69.26;101059.66;4194833;28;20408;-62
2022/04/27 01:05:03;;;;;;;11.40;9.38;;;;;;;10.15;69.45;101056.16;4209580;28;20487;-62
2022/04/27 01:07:07;;;;;;;13.38;10.50;;;;;;;10.24;69.29;101058.97;4198120;28;20495;-62
2022/04/27 01:09:10;;;;;;;12.27;9.37;;;;;;;10.21;69.01;101058.03;4213650;28;20402;-62
2022/04/27 01:11:13;;;;;;;15.57;11.20;;;;;;;10.26;69.05;101054.69;4195049;28;20048;-62
2022/04/27 01:13:27;;;;;;;12.13;10.35;;;;;;;10.28;67.96;101053.03;4214606;28;20510;-62
2022/04/27 01:15:34;;;;;;;11.65;9.60;;;;;;;10.14;68.82;101050.06;4213422;28;20036;-62
2022/04/27 01:17:37;;;;;;;14.95;11.18;;;;;;;10.21;68.96;101058.03;4210041;28;20028;-61
2022/04/27 01:19:40;;;;;;;16.23;11.85;;;;;;;10.29;68.15;101056.50;4210904;28;20519;-62
2022/04/27 01:21:45;;;;;;;13.48;11.05;;;;;;;10.26;68.02;101054.69;4210304;28;20040;-62
2022/04/27 01:23:47;;;;;;;15.35;12.27;;;;;;;10.26;68.10;101053.81;4213844;28;20460;-62
2022/04/27 01:25:52;;;;;;;14.55;12.10;;;;;;;10.31;67.88;101060.03;4214595;28;20043;-62
2022/04/27 01:27:55;;;;;;;15.30;12.43;;;;;;;10.31;67.39;101060.03;4214469;28;20479;-62
2022/04/27 01:29:58;;;;;;;18.77;13.48;;;;;;;10.33;67.77;101052.25;4214188;28;20076;-62
2022/04/27 01:32:01;;;;;;;14.32;11.95;;;;;;;10.27;67.26;101055.59;4212284;28;20518;-62
2022/04/27 01:34:05;;;;;;;16.38;11.65;;;;;;;10.18;68.27;101057.94;4214266;28;20074;-62
2022/04/27 01:36:09;;;;;;;15.52;11.52;;;;;;;10.16;68.47;101049.22;4213607;28;20044;-62
2022/04/27 01:38:17;;;;;;;15.25;12.65;;;;;;;10.19;67.99;101051.91;4215514;28;20046;-62
2022/04/27 01:40:20;;;;;;;14.77;12.38;;;;;;;10.22;67.58;101051.97;4214159;28;20390;-62
2022/04/27 01:42:24;;;;;;;17.25;12.98;;;;;;;10.28;67.12;101052.16;4212207;28;20040;-62
2022/04/27 01:44:27;;;;;;;16.65;13.00;;;;;;;10.21;66.83;101039.84;4215044;28;20041;-61
2022/04/27 01:46:30;;;;;;;18.02;13.98;;;;;;;10.27;66.83;101053.00;4215119;28;20043;-62
2022/04/27 01:48:33;;;;;;;15.95;12.98;;;;;;;10.20;67.25;101045.88;4197283;28;20041;-62
2022/04/27 01:50:37;;;;;;;17.38;13.00;;;;;;;10.13;67.65;101045.72;4213025;28;20538;-62
2022/04/27 01:55:02;;;;;;;16.00;13.20;;;;;;;10.11;67.35;101044.78;4213403;28;20387;-62
2022/04/27 01:57:07;;;;;;;15.10;13.20;;;;;;;10.05;67.94;101046.38;4213389;28;20032;-62
2022/04/27 01:59:11;;;;;;;16.55;13.80;;;;;;;10.02;68.61;101052.34;4212049;28;20036;-62
2022/04/27 02:01:14;;;;;;;15.15;12.88;;;;;;;10.02;68.51;101054.97;4191840;28;20044;-62
2022/04/27 02:03:18;;;;;;;19.48;15.85;;;;;;;10.03;68.50;101058.41;4212465;28;20036;-62
2022/04/27 02:05:21;;;;;;;17.25;13.73;;;;;;;10.05;68.66;101065.41;4212498;28;20449;-62
2022/04/27 02:07:25;;;;;;;16.77;14.27;;;;;;;10.06;68.37;101064.59;4213775;28;20123;-62
2022/04/27 02:09:28;;;;;;;18.17;14.63;;;;;;;10.06;68.70;101056.81;4193684;28;20388;-62
2022/04/27 02:11:32;;;;;;;16.85;14.05;;;;;;;10.08;68.57;101068.09;4212808;28;20446;-62
2022/04/27 02:13:40;;;;;;;17.95;15.00;;;;;;;10.11;68.60;101064.72;4210341;28;20040;-62
2022/04/27 02:15:43;;;;;;;20.92;16.70;;;;;;;10.16;68.14;101062.22;4209904;28;20047;-62
2022/04/27 02:18:17;;;;;;;20.67;16.27;;;;;;;10.20;68.27;101066.66;4197534;28;20405;-62
2022/04/27 02:20:22;;;;;;;21.60;16.85;;;;;;;10.12;68.04;101072.53;4213908;28;20123;-62
2022/04/27 02:22:25;;;;;;;21.65;16.58;;;;;;;10.07;68.37;101063.72;4212130;28;20040;-62
2022/04/27 02:24:28;;;;;;;23.88;18.17;;;;;;;10.09;68.23;101062.06;4212936;28;20090;-62
2022/04/27 02:26:32;;;;;;;22.13;17.77;;;;;;;10.06;68.56;101068.88;4212945;28;20063;-62
2022/04/27 02:28:36;;;;;;;;;;;;;;;9.88;68.97;101066.69;4208574;28;20122;-62
2022/04/27 02:30:39;;;;;;;24.25;16.63;;;;;;;10.03;68.54;101066.22;4238655;27;20431;-63
2022/04/27 02:32:42;;;;;;;22.27;17.45;;;;;;;10.09;68.31;101077.66;4209225;28;20047;-62
2022/04/27 02:34:45;;;;;;;18.63;15.43;;;;;;;9.97;68.48;101069.53;4209402;28;20123;-63
2022/04/27 02:36:49;;;;;;;18.60;15.50;;;;;;;9.93;68.89;101078.09;4213645;28;20039;-62
2022/04/27 02:38:52;;;;;;;22.25;17.42;;;;;;;9.90;69.14;101075.41;4213147;28;20487;-62
2022/04/27 02:40:55;;;;;;;21.63;18.50;;;;;;;9.91;69.49;101079.75;4194596;28;20047;-62
2022/04/27 02:43:00;;;;;;;22.13;18.10;;;;;;;9.95;69.18;101079.00;4213019;28;20507;-62
2022/04/27 02:45:05;;;;;;;26.63;18.92;;;;;;;9.91;69.06;101079.75;4211685;28;20572;-62
2022/04/27 02:47:08;;;;;;;22.02;18.85;;;;;;;9.91;69.57;101082.34;4203541;28;20082;-62
2022/04/27 02:51:51;;;;;;;22.88;17.85;;;;;;;9.83;69.94;101078.66;4211316;28;20123;-62
2022/04/27 02:54:26;;;;;;;20.10;15.98;;;;;;;9.76;70.10;101083.69;4213894;28;20464;-62
2022/04/27 02:56:37;;;;;;;21.13;16.27;;;;;;;9.75;70.39;101079.38;4211163;28;20039;-62
2022/04/27 02:58:41;;;;;;;20.08;16.52;;;;;;;9.74;70.59;101075.00;4190356;28;20581;-62
2022/04/27 03:00:44;;;;;;;23.25;19.70;;;;;;;9.73;70.72;101078.41;4196276;28;20050;-62
2022/04/27 03:02:50;;;;;;;26.35;22.10;;;;;;;9.76;70.24;101094.09;4212038;28;20498;-62
2022/04/27 03:04:57;;;;;;;25.27;20.85;;;;;;;9.87;70.18;101090.91;4212956;28;20032;-62
2022/04/27 03:07:00;;;;;;;23.88;20.42;;;;;;;9.82;69.98;101093.38;4212346;28;20032;-62
2022/04/27 03:09:03;;;;;;;25.90;21.52;;;;;;;9.82;70.22;101092.50;4210935;28;20413;-62
2022/04/27 03:11:06;;;;;;;28.58;22.15;;;;;;;9.73;70.28;101093.13;4195280;28;20083;-62
2022/04/27 03:13:38;;;;;;;30.13;22.10;;;;;;;9.75;70.14;101088.84;4196772;28;20044;-62
2022/04/27 03:15:50;;;;;;;26.35;22.23;;;;;;;9.69;70.40;101092.16;4208768;28;20024;-62
2022/04/27 03:18:17;;;;;;;27.27;21.42;;;;;;;9.65;70.55;101094.63;4212332;28;20032;-62
2022/04/27 03:20:17;;;;;;;26.05;22.73;;;;;;;9.66;70.28;101097.25;4212345;28;20043;-62
2022/04/27 03:22:19;;;;;;;27.48;21.80;;;;;;;9.67;70.48;101103.34;4213181;28;20039;-62
2022/04/27 03:24:23;;;;;;;27.23;21.50;;;;;;;9.63;70.33;101091.97;4212839;28;20039;-62
2022/04/27 03:26:28;;;;;;;28.38;21.60;;;;;;;9.59;70.72;101095.31;4193481;28;20119;-62
2022/04/27 03:28:33;;;;;;;28.65;22.60;;;;;;;9.62;70.43;101095.41;4194581;28;20051;-62
2022/04/27 03:30:36;;;;;;;27.77;23.27;;;;;;;9.52;70.81;101101.16;4210307;28;20111;-62
2022/04/27 03:32:48;;;;;;;27.88;21.67;;;;;;;9.47;70.86;101094.97;4215640;28;20477;-62
2022/04/27 03:34:51;;;;;;;28.58;23.23;;;;;;;9.49;71.05;101099.41;4211483;28;20036;-62
2022/04/27 03:36:58;;;;;;;29.95;22.80;;;;;;;9.48;71.04;101094.16;4212200;28;20123;-62
2022/04/27 03:39:00;;;;;;;29.15;23.95;;;;;;;9.48;71.24;101104.53;4212665;28;20048;-62
2022/04/27 03:41:04;;;;;;;28.05;23.50;;;;;;;9.50;71.01;101101.13;4205590;28;20048;-62
2022/04/27 03:43:08;;;;;;;27.80;22.52;;;;;;;9.46;71.15;101098.41;4211913;28;20043;-62
2022/04/27 03:45:12;;;;;;;29.27;22.80;;;;;;;9.50;70.85;101106.31;4212535;28;20502;-62
2022/04/27 03:47:17;;;;;;;27.35;21.70;;;;;;;9.40;71.40;101107.78;4206196;28;20456;-62
2022/04/27 03:49:21;;;;;;;27.27;22.30;;;;;;;9.33;71.49;101113.63;4211893;28;20135;-62
2022/04/27 03:51:24;;;;;;;27.42;22.83;;;;;;;9.32;71.65;101101.47;4212020;28;20098;-62
2022/04/27 03:53:27;;;;;;;27.17;22.30;;;;;;;9.30;71.80;101112.66;4212413;28;20062;-62
2022/04/27 03:55:33;;;;;;;29.35;22.50;;;;;;;9.33;71.40;101118.81;4211702;28;20035;-62
2022/04/27 03:57:37;;;;;;;30.02;25.00;;;;;;;9.36;71.35;101112.81;4212337;28;20036;-62
2022/04/27 03:59:40;;;;;;;30.92;24.23;;;;;;;9.37;71.20;101112.00;4211745;28;20069;-62
2022/04/27 04:01:44;;;;;;;26.77;22.80;;;;;;;9.30;71.21;101118.72;4193359;28;20538;-62
2022/04/27 04:03:47;;;;;;;28.98;23.67;;;;;;;9.29;71.49;101124.75;4210542;28;20130;-62
2022/04/27 04:05:53;;;;;;;29.73;24.42;;;;;;;9.24;71.69;101126.31;4211186;28;20126;-62
2022/04/27 04:07:56;;;;;;;32.38;25.17;;;;;;;9.24;71.64;101128.91;4211294;28;20081;-62
2022/04/27 04:09:59;;;;;;;31.27;25.27;;;;;;;9.24;71.60;101126.31;4211162;28;20068;-61
2022/04/27 04:12:02;;;;;;;32.88;25.67;;;;;;;9.30;71.42;101134.31;4210710;28;20110;-61
2022/04/27 04:14:05;;;;;;;29.95;25.50;;;;;;;9.29;71.45;101137.72;4212416;28;20046;-61
2022/04/27 04:16:30;;;;;;;30.38;25.15;;;;;;;9.30;71.65;101138.59;4203433;28;20048;-62
2022/04/27 04:18:57;;;;;;;32.38;24.40;;;;;;;9.32;71.26;101139.53;4200127;28;20051;-62
2022/04/27 04:21:15;;;;;;;31.85;26.40;;;;;;;9.20;71.79;101143.50;4211473;28;20587;-63
2022/04/27 04:23:44;;;;;;;29.50;24.88;;;;;;;9.17;71.96;101147.69;4209263;28;20452;-62
2022/04/27 04:30:28;;;;;;;34.55;26.38;;;;;;;9.18;71.84;101158.13;4212117;28;20032;-63
2022/04/27 04:32:50;;;;;;;36.97;27.85;;;;;;;9.17;72.11;101163.28;4205183;28;20068;-63
2022/04/27 04:35:09;;;;;;;31.92;26.77;;;;;;;9.14;72.22;101169.25;4211209;28;20094;-63
2022/04/27 04:37:13;;;;;;;33.90;27.15;;;;;;;9.14;71.95;101163.19;4211705;28;20048;-63
2022/04/27 04:39:16;;;;;;;32.22;27.10;;;;;;;9.14;72.59;101173.56;4208182;28;20047;-63
2022/04/27 04:41:21;;;;;;;35.83;27.83;;;;;;;9.14;72.74;101173.56;4214156;28;20461;-63
2022/04/27 04:44:07;;;;;;;35.30;26.40;;;;;;;9.15;72.00;101176.19;4196762;28;20040;-64
2022/04/27 04:46:30;;;;;;;34.88;27.17;;;;;;;9.06;72.57;101175.91;4214272;28;20422;-64
2022/04/27 04:48:41;;;;;;;33.38;26.98;;;;;;;9.02;72.72;101182.72;4211577;28;20052;-64
2022/04/27 04:51:02;;;;;;;33.42;27.00;;;;;;;9.08;72.37;101189.78;4200358;28;20082;-64
2022/04/27 04:53:27;;;;;;;33.17;26.67;;;;;;;9.13;72.51;101190.84;4243321;27;20077;-64
2022/04/27 04:55:51;;;;;;;34.55;27.33;;;;;;;9.12;72.58;101190.78;4198630;28;20048;-64
2022/04/27 04:58:14;;;;;;;35.55;27.15;;;;;;;9.08;72.63;101193.28;4208364;28;20110;-64
2022/04/27 05:00:40;;;;;;;35.25;27.45;;;;;;;9.21;72.40;101202.34;4213075;28;20086;-64
2022/04/27 05:03:12;;;;;;;34.30;27.48;;;;;;;9.23;72.03;101194.63;4161568;28;20136;-64
2022/04/27 05:05:41;;;;;;;35.40;28.85;;;;;;;9.26;72.12;101202.50;4183666;28;20052;-64
2022/04/27 05:08:13;;;;;;;34.03;26.70;;;;;;;9.09;73.04;101194.16;4230182;28;20047;-64
2022/04/27 05:10:37;;;;;;;36.03;28.08;;;;;;;9.09;72.79;101192.44;4211890;28;20082;-64
2022/04/27 05:12:45;;;;;;;39.92;28.98;;;;;;;9.08;73.13;101197.56;4213386;28;20071;-64
2022/04/27 05:15:24;;;;;;;35.38;27.95;;;;;;;9.25;72.57;101205.91;4201053;28;20048;-64
2022/04/27 05:17:45;;;;;;;35.15;28.48;;;;;;;9.25;72.41;101211.09;4215477;28;20082;-64
2022/04/27 05:19:59;;;;;;;41.75;29.50;;;;;;;9.30;72.61;101208.66;4215310;28;20048;-64
2022/04/27 05:22:16;;;;;;;33.88;26.77;;;;;;;9.25;72.76;101211.09;4192666;28;20052;-64
2022/04/27 05:24:21;;;;;;;36.58;29.17;;;;;;;9.30;72.78;101209.53;4215706;28;20050;-65
2022/04/27 05:26:45;;;;;;;37.60;28.52;;;;;;;9.34;72.79;101213.97;4214471;28;20036;-64
2022/04/27 05:31:55;;;;;;;34.75;27.52;;;;;;;9.34;72.81;101218.28;4212577;28;20036;-64
2022/04/27 05:34:18;;;;;;;33.88;26.60;;;;;;;9.39;72.69;101224.53;4208965;28;20848;-64
2022/04/27 05:36:28;;;;;;;35.80;28.25;;;;;;;9.50;72.03;101225.72;4213202;28;20060;-64
2022/04/27 05:38:50;;;;;;;34.78;28.25;;;;;;;9.46;71.82;101231.63;4206827;28;20048;-64
2022/04/27 05:41:19;;;;;;;33.60;27.65;;;;;;;9.35;72.20;101225.25;4209593;28;20127;-64
2022/04/27 05:43:33;;;;;;;34.28;27.55;;;;;;;9.36;72.41;101227.00;4209844;28;20052;-64
2022/04/27 05:45:56;;;;;;;36.33;27.50;;;;;;;9.40;72.23;101229.75;4214302;28;20124;-64
2022/04/27 05:48:19;;;;;;;;;;;;;;;9.38;72.20;101235.72;4210372;28;20123;-64
2022/04/27 05:50:58;;;;;;;34.13;27.27;;;;;;;9.44;72.55;101235.91;4210860;28;19953;-64
2022/04/27 05:53:16;;;;;;;34.03;27.88;;;;;;;9.48;72.06;101236.91;4207756;28;20051;-64
2022/04/27 05:55:26;;;;;;;37.03;27.50;;;;;;;9.51;71.97;101244.78;4210448;28;20032;-64
2022/04/27 05:57:40;;;;;;;37.38;28.23;;;;;;;9.52;71.74;101244.84;4212503;28;20072;-64
2022/04/27 06:00:01;;;;;;;38.10;27.92;;;;;;;9.55;71.68;101244.94;4206304;28;20534;-64
2022/04/27 06:02:23;;;;;;;36.53;27.55;;;;;;;9.65;71.30;101250.38;4204016;28;20036;-64
2022/04/27 06:04:27;;;;;;;31.30;25.52;;;;;;;9.66;71.59;101249.56;4196653;28;20033;-64
2022/04/27 06:06:30;;;;;;;33.72;25.77;;;;;;;9.67;71.11;101248.75;4192716;28;20543;-64
2022/04/27 06:08:35;;;;;;;32.80;25.50;;;;;;;9.60;71.47;101253.72;4208089;28;20055;-64
2022/04/27 06:10:41;;;;;;;30.13;25.60;;;;;;;9.69;71.28;101247.94;4211568;28;20036;-64
2022/04/27 06:12:46;;;;;;;29.88;24.08;;;;;;;9.69;70.84;101247.94;4211733;28;20048;-64
2022/04/27 06:15:13;;;;;;;31.17;24.05;;;;;;;9.64;71.26;101252.13;4210748;28;20036;-64
2022/04/27 06:17:17;;;;;;;29.15;23.85;;;;;;;9.78;71.09;101263.81;4193179;28;20044;-64
2022/04/27 06:19:20;;;;;;;;;;;;;;;9.66;71.38;101257.34;4201724;28;20515;-64
2022/04/27 06:21:31;;;;;;;26.17;22.08;;;;;;;9.76;71.26;101260.25;4244106;27;20309;-64
2022/04/27 06:23:35;;;;;;;30.85;23.15;;;;;;;9.85;70.81;101263.97;4203718;28;20119;-64
2022/04/27 06:25:40;;;;;;;28.73;24.10;;;;;;;9.82;70.08;101258.69;4213066;28;20483;-63
2022/04/27 06:27:45;;;;;;;28.27;23.10;;;;;;;9.75;70.32;101265.41;4204070;28;20071;-63
2022/04/27 06:29:48;;;;;;;31.00;24.50;;;;;;;9.74;70.48;101264.53;4240515;27;20695;-63
2022/04/27 06:31:52;;;;;;;28.65;24.05;;;;;;;9.75;70.51;101270.59;4212440;28;20036;-63
2022/04/27 06:33:55;;;;;;;30.08;23.92;;;;;;;9.78;70.49;101268.09;4209554;28;20103;-64
2022/04/27 06:35:58;;;;;;;27.80;22.80;;;;;;;9.81;70.34;101263.00;4217212;28;20043;-63
2022/04/27 06:38:01;;;;;;;27.33;23.42;;;;;;;9.84;70.21;101268.31;4201146;28;20128;-64
2022/04/27 06:40:25;;;;;;;29.42;23.17;;;;;;;9.92;69.86;101263.34;4222057;28;20147;-63
2022/04/27 06:42:29;;;;;;;28.80;20.33;;;;;;;9.92;70.14;101271.13;4212945;28;20130;-64
2022/04/27 06:44:50;;;;;;;30.45;23.80;;;;;;;10.03;70.07;101268.84;4210924;28;20043;-63
2022/04/27 06:47:13;;;;;;;25.52;21.58;;;;;;;10.09;70.09;101275.09;4201887;28;20111;-64
2022/04/27 06:49:35;;;;;;;33.35;24.60;;;;;;;10.17;69.88;101269.25;4209882;28;20410;-63
2022/04/27 06:51:58;;;;;;;28.00;22.25;;;;;;;10.18;69.90;101278.78;4212878;28;20068;-63
2022/04/27 06:54:20;;;;;;;26.60;21.42;;;;;;;10.34;69.10;101280.16;4213101;28;20139;-64
2022/04/27 06:56:42;;;;;;;27.92;22.42;;;;;;;10.45;68.52;101290.03;4206600;28;20063;-64
2022/04/27 06:58:59;;;;;;;27.55;22.73;;;;;;;10.58;68.10;101282.56;4200832;28;20474;-63
2022/04/27 07:01:08;;;;;;;30.42;24.58;;;;;;;10.45;68.45;101286.53;4246821;27;20062;-63
2022/04/27 07:03:14;;;;;;;30.38;24.60;;;;;;;10.44;69.01;101296.06;4190513;28;20130;-63
2022/04/27 07:05:17;;;;;;;35.72;25.58;;;;;;;10.53;68.96;101298.03;4206294;28;20122;-63
2022/04/27 07:07:20;;;;;;;26.20;20.35;;;;;;;10.46;68.94;101304.78;4206626;28;20046;-63
2022/04/27 07:09:23;;;;;;;29.27;23.33;;;;;;;10.51;69.20;101302.28;4209045;28;20055;-63
2022/04/27 07:11:26;;;;;;;27.75;24.25;;;;;;;10.56;69.40;101297.25;4212161;28;20044;-64
2022/04/27 07:13:29;;;;;;;26.23;20.38;;;;;;;10.73;69.10;101306.41;4212751;28;20047;-63
2022/04/27 07:15:32;;;;;;;27.20;21.20;;;;;;;10.75;68.55;101309.03;4212654;28;20040;-63
2022/04/27 07:17:35;;;;;;;36.83;23.75;;;;;;;10.92;68.01;101306.88;4213899;28;20048;-63
2022/04/27 07:19:39;;;;;;;32.15;24.17;;;;;;;10.94;67.60;101311.28;4209091;28;20491;-63
2022/04/27 07:21:42;;;;;;;29.98;24.83;;;;;;;11.09;67.64;101305.59;4209764;28;20036;-63
2022/04/27 07:23:45;;;;;;;30.92;24.35;;;;;;;11.05;67.53;101319.34;4211212;28;20054;-64
2022/04/27 07:25:48;;;;;;;34.33;25.73;;;;;;;11.17;67.81;101317.09;4212827;28;20040;-64
2022/04/27 07:27:51;;;;;;;34.45;26.17;;;;;;;11.30;67.57;101325.19;4207471;28;20205;-63
2022/04/27 07:29:54;;;;;;;37.85;26.45;;;;;;;11.39;67.35;101321.94;4205123;28;20060;-63
2022/04/27 07:31:59;;;;;;;37.20;25.73;;;;;;;11.42;66.62;101329.81;4193466;28;20036;-64
2022/04/27 07:34:02;;;;;;;31.48;25.55;;;;;;;11.22;67.61;101326.75;4211374;28;20522;-63
2022/04/27 07:36:07;;;;;;;31.77;27.25;;;;;;;11.22;67.19;101322.41;4212160;28;20552;-63
2022/04/27 07:38:10;;;;;;;33.58;23.58;;;;;;;11.28;68.09;101332.09;4196420;28;20098;-64
2022/04/27 07:40:14;;;;;;;39.38;27.70;;;;;;;11.42;67.52;101333.31;4186420;28;20045;-63
2022/04/27 07:42:16;;;;;;;31.67;27.13;;;;;;;11.52;66.71;101329.19;4209891;28;20116;-64
2022/04/27 07:44:19;;;;;;;31.45;26.85;;;;;;;11.49;66.96;101326.53;4213198;28;20403;-64
2022/04/27 07:46:22;;;;;;;33.20;26.98;;;;;;;11.60;67.06;101324.19;4202712;28;20043;-62
2022/04/27 07:48:27;;;;;;;37.83;28.27;;;;;;;11.74;65.59;101328.00;4204960;28;20054;-62
2022/04/27 07:50:30;;;;;;;39.95;29.38;;;;;;;11.80;65.87;101333.34;4205621;28;20036;-62
2022/04/27 07:52:34;;;;;;;32.67;27.00;;;;;;;11.67;66.33;101333.91;4203990;28;20028;-62
2022/04/27 07:54:37;;;;;;;36.67;28.80;;;;;;;11.83;65.70;101333.44;4206117;28;20055;-62
2022/04/27 07:56:40;;;;;;;29.85;23.35;;;;;;;11.72;66.96;101341.84;4208569;28;20067;-62
2022/04/27 07:58:43;;;;;;;34.17;24.85;;;;;;;11.73;66.80;101339.28;4206378;28;20169;-62
2022/04/27 08:00:46;;;;;;;30.15;23.88;;;;;;;11.94;64.73;101343.25;4204118;28;20066;-62
2022/04/27 08:02:49;;;;;;;31.05;22.23;;;;;;;12.02;64.24;101346.91;4208045;28;20059;-62
2022/04/27 08:04:52;;;;;;;32.58;24.35;;;;;;;12.01;64.67;101343.41;4203809;28;20037;-61
2022/04/27 08:06:55;;;;;;;27.98;21.08;;;;;;;11.68;66.13;101341.78;4218834;28;20024;-62
2022/04/27 08:09:06;;;;;;;29.33;22.27;;;;;;;11.67;65.82;101344.34;4209222;28;20035;-62
2022/04/27 08:11:10;;;;;;;28.02;21.48;;;;;;;11.97;64.63;101348.53;4208732;28;20051;-62
2022/04/27 08:13:13;;;;;;;27.63;21.50;;;;;;;12.15;63.56;101346.34;4206490;28;20036;-62
2022/04/27 08:15:16;;;;;;;25.02;19.27;;;;;;;12.07;64.63;101353.09;4210889;28;20074;-62
2022/04/27 08:17:19;;;;;;;26.25;20.60;;;;;;;12.13;64.36;101347.16;4208155;28;20040;-62
2022/04/27 08:19:22;;;;;;;26.20;22.10;;;;;;;12.07;64.69;101345.28;4205562;28;20036;-61
2022/04/27 08:21:27;;;;;;;27.02;20.80;;;;;;;12.40;62.91;101341.66;4209257;28;20036;-62
2022/04/27 08:23:32;;;;;;;26.33;21.75;;;;;;;12.48;62.56;101336.59;4208215;28;20071;-62
2022/04/27 08:25:37;;;;;;;25.10;21.17;;;;;;;12.49;62.56;101346.19;4208563;28;20460;-61
2022/04/27 08:27:40;;;;;;;26.98;22.33;;;;;;;12.53;62.46;101343.66;4210524;28;20036;-62
2022/04/27 08:29:43;;;;;;;25.20;20.63;;;;;;;12.70;61.45;101343.09;4209078;28;20040;-62
2022/04/27 08:31:46;;;;;;;26.38;21.38;;;;;;;12.59;61.89;101348.13;4211025;28;20043;-62
2022/04/27 08:33:50;;;;;;;27.85;21.55;;;;;;;12.75;61.82;101355.41;4208554;28;20078;-61
2022/04/27 08:35:55;;;;;;;27.50;21.27;;;;;;;12.81;61.25;101353.78;4208914;28;20043;-62
2022/04/27 08:38:18;;;;;;;24.70;21.05;;;;;;;12.75;61.31;101352.78;4211187;28;20089;-62
2022/04/27 08:40:21;;;;;;;28.75;21.65;;;;;;;12.78;61.46;101353.72;4211018;28;20042;-62
2022/04/27 08:42:25;;;;;;;20.67;16.75;;;;;;;12.71;62.19;101352.72;4204755;28;21887;-62
2022/04/27 08:44:28;;;;;;;19.85;16.20;;;;;;;12.64;63.11;101354.31;4211507;28;20043;-62
2022/04/27 08:46:35;;;;;;;21.80;17.92;;;;;;;12.71;62.81;101348.34;4208349;28;20068;-62
2022/04/27 08:48:38;;;;;;;24.27;20.77;;;;;;;13.15;61.13;101352.66;4205250;28;20479;-62
2022/04/27 08:50:41;;;;;;;21.67;18.20;;;;;;;13.21;59.53;101349.28;4210661;28;20047;-62
2022/04/27 08:52:45;;;;;;;23.17;20.67;;;;;;;13.07;60.80;101355.13;4210271;28;20115;-62
2022/04/27 08:54:49;;;;;;;25.83;21.43;;;;;;;13.10;61.18;101351.72;4206146;28;20042;-62
2022/04/27 08:56:52;;;;;;;23.33;17.85;;;;;;;12.96;61.24;101354.06;4218146;28;20046;-62
2022/04/27 08:58:57;;;;;;;23.67;18.70;;;;;;;13.14;61.06;101355.25;4205429;28;20430;-62
2022/04/27 09:01:00;;;;;;;26.88;20.08;;;;;;;13.23;60.04;101358.91;4204865;28;20052;-62
2022/04/27 09:03:26;;;;;;;21.58;17.75;;;;;;;13.02;61.27;101355.91;4205010;28;20127;-62
2022/04/27 09:05:37;;;;;;;29.42;19.65;;;;;;;13.23;61.15;101358.03;4206026;28;20057;-62
2022/04/27 09:07:41;;;;;;;24.95;19.80;;;;;;;13.51;60.36;101356.81;4201971;28;20559;-62
2022/04/27 09:09:48;;;;;;;16.60;14.23;;;;;;;13.54;60.12;101364.69;4207498;28;20518;-62
2022/04/27 09:11:52;;;;;;;23.00;19.30;;;;;;;13.68;59.76;101361.41;4235140;28;20039;-62
2022/04/27 09:13:58;;;;;;;20.60;17.70;;;;;;;13.79;59.85;101357.25;4204020;28;20035;-62
2022/04/27 09:16:02;;;;;;;22.40;18.23;;;;;;;13.99;58.88;101362.78;4207176;28;20576;-62
2022/04/27 09:22:47;;;;;;;17.90;15.25;;;;;;;13.85;58.89;101359.94;4206335;28;20048;-62
2022/04/27 09:24:52;;;;;;;18.85;16.17;;;;;;;13.91;59.12;101365.25;4206347;28;20033;-62
2022/04/27 09:27:03;;;;;;;19.52;15.50;;;;;;;13.80;58.36;101366.84;4209369;28;20043;-62
2022/04/27 09:29:08;;;;;;;19.20;15.45;;;;;;;13.48;59.57;101367.19;4209875;28;20460;-62
2022/04/27 09:31:13;;;;;;;25.45;19.08;;;;;;;13.50;59.85;101367.22;4206753;28;20119;-62
2022/04/27 09:33:30;;;;;;;22.10;18.02;;;;;;;13.60;59.16;101367.38;4208346;28;20054;-62
2022/04/27 09:35:34;;;;;;;23.02;19.20;;;;;;;13.74;59.05;101365.00;4206097;28;20040;-62
2022/04/27 09:37:41;;;;;;;24.73;19.20;;;;;;;13.73;58.88;101365.84;4211322;28;20045;-62
2022/04/27 09:39:44;;;;;;;19.25;17.20;;;;;;;13.66;58.97;101370.97;4210591;28;20044;-62
2022/04/27 09:41:47;;;;;;;18.85;16.05;;;;;;;13.80;58.39;101372.06;4208902;28;20059;-62
2022/04/27 09:43:53;;;;;;;18.38;16.13;;;;;;;14.04;58.33;101365.44;4210543;28;20036;-62
2022/04/27 09:46:15;;;;;;;17.67;13.75;;;;;;;14.22;58.04;101360.50;4210861;28;20526;-62
2022/04/27 09:48:20;;;;;;;19.77;16.67;;;;;;;14.48;57.92;101362.56;4210442;28;20411;-62
2022/04/27 09:50:23;;;;;;;17.35;14.55;;;;;;;14.47;58.12;101358.16;4210348;28;20032;-62
2022/04/27 09:52:29;;;;;;;18.13;14.15;;;;;;;14.76;58.21;101368.16;4208388;28;20067;-62
2022/04/27 09:54:36;;;;;;;13.48;12.05;;;;;;;14.73;57.22;101362.88;4209553;28;20119;-62
2022/04/27 09:56:40;;;;;;;14.65;11.23;;;;;;;14.69;57.75;101359.38;4209600;28;20047;-62
2022/04/27 09:58:47;;;;;;;18.55;15.82;;;;;;;14.83;56.47;101359.50;4207792;28;20374;-62
2022/04/27 10:00:50;;;;;;;18.35;15.80;;;;;;;14.78;55.20;101361.22;4205928;28;20074;-63
2022/04/27 10:02:58;;;;;;;22.40;16.55;;;;;;;14.47;55.47;101355.56;4208953;28;20036;-62